sensor_id;sensor_type;location;lat;lon;timestamp;pressure;altitude;pressure_sealevel;temperature;humidity
64352;BME280;50680;52.626;-8.668;2023-02-12T00:02:25;103483.44;;;8.68;100.00
64352;BME280;50680;52.626;-8.668;2023-02-12T00:04:52;103482.59;;;8.68;100.00
64352;BME280;50680;52.626;-8.668;2023-02-12T00:07:19;103479.97;;;8.68;100.00
64352;BME280;50680;52.626;-8.668;2023-02-12T00:09:46;103473.88;;;8.67;100.00
64352;BME280;50680;52.626;-8.668;2023-02-12T00:12:12;103473.88;;;8.69;100.00
64352;BME280;50680;52.626;-8.668;2023-02-12T00:14:39;103472.13;;;8.68;100.00
64352;BME280;50680;52.626;-8.668;2023-02-12T00:17:06;103464.28;;;8.71;100.00
64352;BME280;50680;52.626;-8.668;2023-02-12T00:19:33;103472.97;;;8.71;100.00
64352;BME280;50680;52.626;-8.668;2023-02-12T00:22:00;103472.09;;;8.72;100.00
64352;BME280;50680;52.626;-8.668;2023-02-12T00:24:26;103466.00;;;8.70;100.00
64352;BME280;50680;52.626;-8.668;2023-02-12T00:26:53;103472.97;;;8.70;100.00
64352;BME280;50680;52.626;-8.668;2023-02-12T00:29:20;103479.06;;;8.72;100.00
64352;BME280;50680;52.626;-8.668;2023-02-12T00:31:47;103473.84;;;8.72;100.00
64352;BME280;50680;52.626;-8.668;2023-02-12T00:34:14;103470.34;;;8.73;100.00
64352;BME280;50680;52.626;-8.668;2023-02-12T00:36:40;103472.06;;;8.74;100.00
64352;BME280;50680;52.626;-8.668;2023-02-12T00:39:09;103472.06;;;8.74;100.00
64352;BME280;50680;52.626;-8.668;2023-02-12T00:41:38;103473.81;;;8.73;100.00
64352;BME280;50680;52.626;-8.668;2023-02-12T00:44:05;103472.13;;;8.71;100.00
64352;BME280;50680;52.626;-8.668;2023-02-12T00:46:31;103464.28;;;8.71;100.00
64352;BME280;50680;52.626;-8.668;2023-02-12T00:48:58;103466.88;;;8.72;100.00
64352;BME280;50680;52.626;-8.668;2023-02-12T00:51:25;103463.38;;;8.70;100.00
64352;BME280;50680;52.626;-8.668;2023-02-12T00:53:52;103459.91;;;8.71;100.00
64352;BME280;50680;52.626;-8.668;2023-02-12T00:56:19;103458.13;;;8.72;100.00
64352;BME280;50680;52.626;-8.668;2023-02-12T00:58:46;103466.00;;;8.70;100.00
64352;BME280;50680;52.626;-8.668;2023-02-12T01:01:12;103456.41;;;8.71;100.00
64352;BME280;50680;52.626;-8.668;2023-02-12T01:03:39;103461.66;;;8.71;100.00
64352;BME280;50680;52.626;-8.668;2023-02-12T01:06:06;103460.75;;;8.72;100.00
64352;BME280;50680;52.626;-8.668;2023-02-12T01:08:33;103452.91;;;8.72;100.00
64352;BME280;50680;52.626;-8.668;2023-02-12T01:11:02;103459.03;;;8.72;100.00
64352;BME280;50680;52.626;-8.668;2023-02-12T01:13:31;103449.44;;;8.70;100.00
64352;BME280;50680;52.626;-8.668;2023-02-12T01:16:05;103446.81;;;8.70;100.00
64352;BME280;50680;52.626;-8.668;2023-02-12T01:18:38;103447.72;;;8.69;100.00
64352;BME280;50680;52.626;-8.668;2023-02-12T01:21:13;103439.88;;;8.67;100.00
64352;BME280;50680;52.626;-8.668;2023-02-12T01:23:41;103447.75;;;8.65;100.00
64352;BME280;50680;52.626;-8.668;2023-02-12T01:26:09;103446.84;;;8.66;100.00
64352;BME280;50680;52.626;-8.668;2023-02-12T01:28:38;103442.50;;;8.69;100.00
64352;BME280;50680;52.626;-8.668;2023-02-12T01:31:14;103444.22;;;8.66;100.00
64352;BME280;50680;52.626;-8.668;2023-02-12T01:33:43;103430.28;;;8.68;100.00
64352;BME280;50680;52.626;-8.668;2023-02-12T01:36:10;103429.41;;;8.67;100.00
64352;BME280;50680;52.626;-8.668;2023-02-12T01:38:37;103431.13;;;8.68;100.00
64352;BME280;50680;52.626;-8.668;2023-02-12T01:41:09;103430.28;;;8.68;100.00
64352;BME280;50680;52.626;-8.668;2023-02-12T01:43:37;103429.41;;;8.69;100.00
64352;BME280;50680;52.626;-8.668;2023-02-12T01:46:05;103431.13;;;8.68;100.00
64352;BME280;50680;52.626;-8.668;2023-02-12T01:48:42;103425.03;;;8.68;100.00
64352;BME280;50680;52.626;-8.668;2023-02-12T01:51:12;103431.09;;;8.74;100.00
64352;BME280;50680;52.626;-8.668;2023-02-12T01:53:46;103429.34;;;8.73;100.00
64352;BME280;50680;52.626;-8.668;2023-02-12T01:56:15;103432.81;;;8.74;100.00
64352;BME280;50680;52.626;-8.668;2023-02-12T01:58:45;103439.81;;;8.73;100.00
64352;BME280;50680;52.626;-8.668;2023-02-12T02:01:17;103429.41;;;8.69;100.00
64352;BME280;50680;52.626;-8.668;2023-02-12T02:03:47;103431.13;;;8.71;100.00
64352;BME280;50680;52.626;-8.668;2023-02-12T02:06:19;103431.13;;;8.70;100.00
64352;BME280;50680;52.626;-8.668;2023-02-12T02:08:47;103432.91;;;8.66;100.00
64352;BME280;50680;52.626;-8.668;2023-02-12T02:11:14;103422.44;;;8.68;100.00
64352;BME280;50680;52.626;-8.668;2023-02-12T02:14:00;103424.19;;;8.69;100.00
64352;BME280;50680;52.626;-8.668;2023-02-12T02:17:15;103417.19;;;8.71;100.00
64352;BME280;50680;52.626;-8.668;2023-02-12T02:30:50;103413.72;;;8.69;100.00
64352;BME280;50680;52.626;-8.668;2023-02-12T02:33:36;103403.22;;;8.70;100.00
64352;BME280;50680;52.626;-8.668;2023-02-12T02:38:45;103402.34;;;8.73;100.00
64352;BME280;50680;52.626;-8.668;2023-02-12T02:41:23;103403.19;;;8.72;100.00
64352;BME280;50680;52.626;-8.668;2023-02-12T02:43:53;103386.66;;;8.70;100.00
64352;BME280;50680;52.626;-8.668;2023-02-12T02:46:34;103398.88;;;8.71;100.00
64352;BME280;50680;52.626;-8.668;2023-02-12T02:49:07;103393.63;;;8.71;100.00
64352;BME280;50680;52.626;-8.668;2023-02-12T02:51:40;103391.00;;;8.72;100.00
64352;BME280;50680;52.626;-8.668;2023-02-12T02:54:22;103388.44;;;8.68;100.00
64352;BME280;50680;52.626;-8.668;2023-02-12T02:56:58;103384.97;;;8.65;100.00
64352;BME280;50680;52.626;-8.668;2023-02-12T02:59:29;103384.94;;;8.67;100.00
64352;BME280;50680;52.626;-8.668;2023-02-12T03:02:03;103379.75;;;8.64;100.00
64352;BME280;50680;52.626;-8.668;2023-02-12T03:04:35;103380.59;;;8.66;100.00
64352;BME280;50680;52.626;-8.668;2023-02-12T03:07:16;103386.72;;;8.62;100.00
64352;BME280;50680;52.626;-8.668;2023-02-12T03:09:56;103391.91;;;8.66;100.00
64352;BME280;50680;52.626;-8.668;2023-02-12T03:12:35;103377.13;;;8.62;100.00
64352;BME280;50680;52.626;-8.668;2023-02-12T03:15:07;103378.81;;;8.68;100.00
64352;BME280;50680;52.626;-8.668;2023-02-12T03:17:39;103364.03;;;8.65;100.00
64352;BME280;50680;52.626;-8.668;2023-02-12T03:20:16;103370.97;;;8.66;100.00
64352;BME280;50680;52.626;-8.668;2023-02-12T03:22:52;103370.13;;;8.66;100.00
64352;BME280;50680;52.626;-8.668;2023-02-12T03:25:29;103363.13;;;8.66;100.00
64352;BME280;50680;52.626;-8.668;2023-02-12T03:28:09;103372.72;;;8.68;100.00
64352;BME280;50680;52.626;-8.668;2023-02-12T03:30:47;103366.66;;;8.65;100.00
64352;BME280;50680;52.626;-8.668;2023-02-12T03:36:32;103349.22;;;8.63;100.00
64352;BME280;50680;52.626;-8.668;2023-02-12T03:39:49;103366.59;;;8.70;100.00
64352;BME280;50680;52.626;-8.668;2023-02-12T03:44:58;103367.44;;;8.74;100.00
64352;BME280;50680;52.626;-8.668;2023-02-12T03:47:35;103362.19;;;8.74;100.00
64352;BME280;50680;52.626;-8.668;2023-02-12T03:50:18;103357.84;;;8.76;100.00
64352;BME280;50680;52.626;-8.668;2023-02-12T03:52:49;103360.47;;;8.76;100.00
64352;BME280;50680;52.626;-8.668;2023-02-12T03:55:16;103357.84;;;8.76;100.00
64352;BME280;50680;52.626;-8.668;2023-02-12T03:57:51;103345.66;;;8.72;100.00
64352;BME280;50680;52.626;-8.668;2023-02-12T04:00:23;103348.25;;;8.75;100.00
64352;BME280;50680;52.626;-8.668;2023-02-12T04:02:51;103355.22;;;8.76;100.00
64352;BME280;50680;52.626;-8.668;2023-02-12T04:05:21;103352.63;;;8.73;100.00
64352;BME280;50680;52.626;-8.668;2023-02-12T04:07:49;103350.88;;;8.75;100.00
64352;BME280;50680;52.626;-8.668;2023-02-12T04:10:22;103348.25;;;8.75;100.00
64352;BME280;50680;52.626;-8.668;2023-02-12T04:13:02;103344.75;;;8.76;100.00
64352;BME280;50680;52.626;-8.668;2023-02-12T04:15:54;103339.56;;;8.73;100.00
64352;BME280;50680;52.626;-8.668;2023-02-12T04:18:40;103345.63;;;8.75;100.00
64352;BME280;50680;52.626;-8.668;2023-02-12T04:37:17;103337.78;;;8.76;100.00
64352;BME280;50680;52.626;-8.668;2023-02-12T04:39:45;103344.72;;;8.79;100.00
64352;BME280;50680;52.626;-8.668;2023-02-12T04:42:13;103346.47;;;8.80;100.00
64352;BME280;50680;52.626;-8.668;2023-02-12T04:44:42;103340.34;;;8.81;100.00
64352;BME280;50680;52.626;-8.668;2023-02-12T04:47:11;103346.44;;;8.81;100.00
64352;BME280;50680;52.626;-8.668;2023-02-12T04:49:39;103347.38;;;8.77;100.00
64352;BME280;50680;52.626;-8.668;2023-02-12T04:52:07;103349.94;;;8.79;100.00
64352;BME280;50680;52.626;-8.668;2023-02-12T04:54:34;103348.22;;;8.78;100.00
64352;BME280;50680;52.626;-8.668;2023-02-12T04:57:01;103344.72;;;8.79;100.00
64352;BME280;50680;52.626;-8.668;2023-02-12T04:59:28;103345.63;;;8.78;100.00
64352;BME280;50680;52.626;-8.668;2023-02-12T05:01:54;103340.38;;;8.79;100.00
64352;BME280;50680;52.626;-8.668;2023-02-12T05:04:21;103346.47;;;8.80;100.00
64352;BME280;50680;52.626;-8.668;2023-02-12T05:06:48;103349.09;;;8.78;100.00
64352;BME280;50680;52.626;-8.668;2023-02-12T05:09:17;103344.72;;;8.79;100.00
64352;BME280;50680;52.626;-8.668;2023-02-12T05:11:45;103349.94;;;8.80;100.00
64352;BME280;50680;52.626;-8.668;2023-02-12T05:14:12;103346.47;;;8.80;100.00
64352;BME280;50680;52.626;-8.668;2023-02-12T05:16:40;103346.47;;;8.80;100.00
64352;BME280;50680;52.626;-8.668;2023-02-12T05:19:06;103348.22;;;8.79;100.00
64352;BME280;50680;52.626;-8.668;2023-02-12T05:21:36;103349.09;;;8.77;100.00
64352;BME280;50680;52.626;-8.668;2023-02-12T05:24:03;103344.69;;;8.80;100.00
64352;BME280;50680;52.626;-8.668;2023-02-12T05:26:30;103346.47;;;8.80;100.00
64352;BME280;50680;52.626;-8.668;2023-02-12T05:28:57;103349.09;;;8.78;100.00
64352;BME280;50680;52.626;-8.668;2023-02-12T05:31:23;103339.53;;;8.76;100.00
64352;BME280;50680;52.626;-8.668;2023-02-12T05:33:50;103342.22;;;8.65;100.00
64352;BME280;50680;52.626;-8.668;2023-02-12T05:36:20;103332.66;;;8.62;100.00
64352;BME280;50680;52.626;-8.668;2023-02-12T05:38:48;103316.25;;;8.48;100.00
64352;BME280;50680;52.626;-8.668;2023-02-12T05:41:21;103335.31;;;8.58;100.00
64352;BME280;50680;52.626;-8.668;2023-02-12T05:43:49;103333.63;;;8.54;100.00
64352;BME280;50680;52.626;-8.668;2023-02-12T05:46:17;103348.47;;;8.50;100.00
64352;BME280;50680;52.626;-8.668;2023-02-12T05:48:46;103340.63;;;8.49;100.00
64352;BME280;50680;52.626;-8.668;2023-02-12T05:51:15;103342.41;;;8.46;100.00
64352;BME280;50680;52.626;-8.668;2023-02-12T05:53:43;103339.78;;;8.45;100.00
64352;BME280;50680;52.626;-8.668;2023-02-12T05:56:30;103342.41;;;8.45;100.00
64352;BME280;50680;52.626;-8.668;2023-02-12T05:59:00;103331.09;;;8.44;100.00
64352;BME280;50680;52.626;-8.668;2023-02-12T06:01:30;103341.56;;;8.44;100.00
64352;BME280;50680;52.626;-8.668;2023-02-12T06:03:58;103340.66;;;8.45;100.00
64352;BME280;50680;52.626;-8.668;2023-02-12T06:06:27;103335.44;;;8.45;100.00
64352;BME280;50680;52.626;-8.668;2023-02-12T06:08:54;103328.47;;;8.44;100.00
64352;BME280;50680;52.626;-8.668;2023-02-12T06:11:22;103337.16;;;8.46;100.00
64352;BME280;50680;52.626;-8.668;2023-02-12T06:13:48;103329.31;;;8.48;100.00
64352;BME280;50680;52.626;-8.668;2023-02-12T06:18:43;103320.56;;;8.49;100.00
64352;BME280;50680;52.626;-8.668;2023-02-12T06:21:10;103321.47;;;8.48;100.00
64352;BME280;50680;52.626;-8.668;2023-02-12T06:23:37;103313.66;;;8.45;100.00
64352;BME280;50680;52.626;-8.668;2023-02-12T06:26:04;103308.44;;;8.43;100.00
64352;BME280;50680;52.626;-8.668;2023-02-12T06:28:30;103310.19;;;8.43;100.00
64352;BME280;50680;52.626;-8.668;2023-02-12T06:30:57;103301.44;;;8.41;100.00
64352;BME280;50680;52.626;-8.668;2023-02-12T06:33:24;103297.94;;;8.42;100.00
64352;BME280;50680;52.626;-8.668;2023-02-12T06:35:51;103305.78;;;8.42;100.00
64352;BME280;50680;52.626;-8.668;2023-02-12T06:38:18;103305.78;;;8.42;100.00
64352;BME280;50680;52.626;-8.668;2023-02-12T06:40:45;103306.66;;;8.41;100.00
64352;BME280;50680;52.626;-8.668;2023-02-12T06:43:12;103300.63;;;8.36;100.00
64352;BME280;50680;52.626;-8.668;2023-02-12T06:45:38;103310.16;;;8.40;100.00
64352;BME280;50680;52.626;-8.668;2023-02-12T06:48:05;103304.06;;;8.42;100.00
64352;BME280;50680;52.626;-8.668;2023-02-12T06:50:32;103310.19;;;8.43;100.00
64352;BME280;50680;52.626;-8.668;2023-02-12T06:52:59;103307.56;;;8.43;100.00
64352;BME280;50680;52.626;-8.668;2023-02-12T06:55:26;103305.78;;;8.46;100.00
64352;BME280;50680;52.626;-8.668;2023-02-12T06:57:53;103308.41;;;8.48;100.00
64352;BME280;50680;52.626;-8.668;2023-02-12T07:00:20;103308.34;;;8.51;100.00
64352;BME280;50680;52.626;-8.668;2023-02-12T07:02:54;103305.78;;;8.48;100.00
64352;BME280;50680;52.626;-8.668;2023-02-12T07:05:22;103307.47;;;8.52;100.00
64352;BME280;50680;52.626;-8.668;2023-02-12T07:07:49;103303.13;;;8.51;100.00
64352;BME280;50680;52.626;-8.668;2023-02-12T07:10:17;103308.38;;;8.50;100.00
64352;BME280;50680;52.626;-8.668;2023-02-12T07:12:44;103303.19;;;8.45;100.00
64352;BME280;50680;52.626;-8.668;2023-02-12T07:15:11;103298.81;;;8.44;100.00
64352;BME280;50680;52.626;-8.668;2023-02-12T07:17:38;103299.72;;;8.40;100.00
64352;BME280;50680;52.626;-8.668;2023-02-12T07:20:07;103302.34;;;8.38;100.00
64352;BME280;50680;52.626;-8.668;2023-02-12T07:22:35;103304.09;;;8.36;100.00
64352;BME280;50680;52.626;-8.668;2023-02-12T07:25:02;103303.25;;;8.34;100.00
64352;BME280;50680;52.626;-8.668;2023-02-12T07:27:29;103300.63;;;8.36;100.00
64352;BME280;50680;52.626;-8.668;2023-02-12T07:29:56;103301.50;;;8.35;100.00
64352;BME280;50680;52.626;-8.668;2023-02-12T07:32:22;103312.81;;;8.37;100.00
64352;BME280;50680;52.626;-8.668;2023-02-12T07:34:49;103291.13;;;8.25;100.00
64352;BME280;50680;52.626;-8.668;2023-02-12T07:37:16;103318.03;;;8.35;100.00
64352;BME280;50680;52.626;-8.668;2023-02-12T07:39:48;103299.81;;;8.27;100.00
64352;BME280;50680;52.626;-8.668;2023-02-12T07:42:15;103318.03;;;8.38;100.00
64352;BME280;50680;52.626;-8.668;2023-02-12T07:44:43;103319.78;;;8.39;100.00
64352;BME280;50680;52.626;-8.668;2023-02-12T07:47:10;103321.47;;;8.42;100.00
64352;BME280;50680;52.626;-8.668;2023-02-12T07:49:36;103317.13;;;8.41;100.00
64352;BME280;50680;52.626;-8.668;2023-02-12T07:52:03;103312.78;;;8.41;100.00
64352;BME280;50680;52.626;-8.668;2023-02-12T07:54:30;103315.41;;;8.40;100.00
64352;BME280;50680;52.626;-8.668;2023-02-12T07:56:57;103315.41;;;8.38;100.00
64352;BME280;50680;52.626;-8.668;2023-02-12T07:59:24;103326.78;;;8.36;100.00
64352;BME280;50680;52.626;-8.668;2023-02-12T08:01:51;103325.03;;;8.35;100.00
64352;BME280;50680;52.626;-8.668;2023-02-12T08:04:21;103313.75;;;8.29;100.00
64352;BME280;50680;52.626;-8.668;2023-02-12T08:06:51;103313.72;;;8.33;100.00
64352;BME280;50680;52.626;-8.668;2023-02-12T08:09:25;103319.81;;;8.35;100.00
64352;BME280;50680;52.626;-8.668;2023-02-12T08:11:52;103324.16;;;8.36;100.00
64352;BME280;50680;52.626;-8.668;2023-02-12T08:14:20;103325.03;;;8.36;100.00
64352;BME280;50680;52.626;-8.668;2023-02-12T08:16:48;103327.63;;;8.38;100.00
64352;BME280;50680;52.626;-8.668;2023-02-12T08:19:15;103328.47;;;8.38;100.00
64352;BME280;50680;52.626;-8.668;2023-02-12T08:21:50;103320.66;;;8.34;100.00
64352;BME280;50680;52.626;-8.668;2023-02-12T08:24:18;103330.22;;;8.42;100.00
64352;BME280;50680;52.626;-8.668;2023-02-12T08:26:45;103324.13;;;8.43;100.00
64352;BME280;50680;52.626;-8.668;2023-02-12T08:29:14;103335.44;;;8.45;100.00
64352;BME280;50680;52.626;-8.668;2023-02-12T08:31:44;103312.75;;;8.47;100.00
64352;BME280;50680;52.626;-8.668;2023-02-12T08:34:20;103317.06;;;8.53;100.00
64352;BME280;50680;52.626;-8.668;2023-02-12T08:36:48;103312.69;;;8.57;100.00
64352;BME280;50680;52.626;-8.668;2023-02-12T08:39:17;103309.16;;;8.58;100.00
64352;BME280;50680;52.626;-8.668;2023-02-12T08:41:44;103311.78;;;8.59;100.00
64352;BME280;50680;52.626;-8.668;2023-02-12T08:44:12;103315.22;;;8.64;100.00
64352;BME280;50680;52.626;-8.668;2023-02-12T08:46:42;103323.03;;;8.68;100.00
64352;BME280;50680;52.626;-8.668;2023-02-12T08:49:21;103309.09;;;8.69;100.00
64352;BME280;50680;52.626;-8.668;2023-02-12T08:51:50;103316.00;;;8.74;100.00
64352;BME280;50680;52.626;-8.668;2023-02-12T08:54:22;103302.91;;;8.76;100.00
64352;BME280;50680;52.626;-8.668;2023-02-12T08:56:53;103300.22;;;8.79;100.00
64352;BME280;50680;52.626;-8.668;2023-02-12T08:59:21;103301.97;;;8.81;100.00
64352;BME280;50680;52.626;-8.668;2023-02-12T09:01:50;103297.59;;;8.82;100.00
64352;BME280;50680;52.626;-8.668;2023-02-12T09:04:20;103306.28;;;8.84;100.00
64352;BME280;50680;52.626;-8.668;2023-02-12T09:06:48;103306.25;;;8.87;100.00
64352;BME280;50680;52.626;-8.668;2023-02-12T09:09:16;103296.63;;;8.91;100.00
64352;BME280;50680;52.626;-8.668;2023-02-12T09:11:43;103301.84;;;8.94;100.00
64352;BME280;50680;52.626;-8.668;2023-02-12T09:14:13;103300.06;;;8.94;100.00
64352;BME280;50680;52.626;-8.668;2023-02-12T09:16:41;103294.78;;;9.00;100.00
64352;BME280;50680;52.626;-8.668;2023-02-12T09:19:11;103298.28;;;8.99;100.00
64352;BME280;50680;52.626;-8.668;2023-02-12T09:21:38;103297.38;;;9.03;100.00
64352;BME280;50680;52.626;-8.668;2023-02-12T09:24:05;103286.91;;;9.03;100.00
64352;BME280;50680;52.626;-8.668;2023-02-12T09:26:32;103293.84;;;9.06;100.00
64352;BME280;50680;52.626;-8.668;2023-02-12T09:29:01;103292.16;;;9.03;100.00
64352;BME280;50680;52.626;-8.668;2023-02-12T09:31:29;103292.03;;;9.13;100.00
64352;BME280;50680;52.626;-8.668;2023-02-12T09:33:58;103290.22;;;9.19;100.00
64352;BME280;50680;52.626;-8.668;2023-02-12T09:36:26;103291.91;;;9.22;100.00
64352;BME280;50680;52.626;-8.668;2023-02-12T09:38:53;103290.16;;;9.24;100.00
64352;BME280;50680;52.626;-8.668;2023-02-12T09:41:28;103283.16;;;9.26;100.00
64352;BME280;50680;52.626;-8.668;2023-02-12T09:44:40;103287.47;;;9.29;100.00
64352;BME280;50680;52.626;-8.668;2023-02-12T09:47:20;103288.34;;;9.29;100.00
64352;BME280;50680;52.626;-8.668;2023-02-12T09:52:54;103277.78;;;9.35;100.00
64352;BME280;50680;52.626;-8.668;2023-02-12T09:55:27;103282.97;;;9.41;100.00
64352;BME280;50680;52.626;-8.668;2023-02-12T09:57:55;103281.19;;;9.44;100.00
64352;BME280;50680;52.626;-8.668;2023-02-12T10:00:27;103282.00;;;9.47;100.00
64352;BME280;50680;52.626;-8.668;2023-02-12T10:03:00;103274.97;;;9.51;100.00
64352;BME280;50680;52.626;-8.668;2023-02-12T10:05:36;103276.72;;;9.52;100.00
64352;BME280;50680;52.626;-8.668;2023-02-12T10:10:59;103267.84;;;9.60;100.00
64352;BME280;50680;52.626;-8.668;2023-02-12T10:27:17;103265.75;;;9.84;100.00
64352;BME280;50680;52.626;-8.668;2023-02-12T10:29:47;103268.28;;;9.90;100.00
64352;BME280;50680;52.626;-8.668;2023-02-12T10:32:25;103267.34;;;9.93;100.00
64352;BME280;50680;52.626;-8.668;2023-02-12T10:34:55;103259.41;;;9.99;100.00
64352;BME280;50680;52.626;-8.668;2023-02-12T10:37:54;103255.06;;;9.96;100.00
64352;BME280;50680;52.626;-8.668;2023-02-12T10:40:32;103245.31;;;10.06;100.00
64352;BME280;50680;52.626;-8.668;2023-02-12T10:43:03;103247.75;;;10.17;100.00
64352;BME280;50680;52.626;-8.668;2023-02-12T10:45:31;103245.09;;;10.19;100.00
64352;BME280;50680;52.626;-8.668;2023-02-12T10:48:21;103246.88;;;10.18;100.00
64352;BME280;50680;52.626;-8.668;2023-02-12T10:53:45;103243.19;;;10.28;100.00
64352;BME280;50680;52.626;-8.668;2023-02-12T10:58:41;103242.22;;;10.35;100.00
64352;BME280;50680;52.626;-8.668;2023-02-12T11:03:43;103248.41;;;10.30;100.00
64352;BME280;50680;52.626;-8.668;2023-02-12T11:06:30;103244.03;;;10.30;100.00
64352;BME280;50680;52.626;-8.668;2023-02-12T11:08:57;103245.78;;;10.30;100.00
64352;BME280;50680;52.626;-8.668;2023-02-12T11:11:28;103244.91;;;10.32;100.00
64352;BME280;50680;52.626;-8.668;2023-02-12T11:14:03;103246.63;;;10.35;100.00
64352;BME280;50680;52.626;-8.668;2023-02-12T11:16:38;103246.63;;;10.35;100.00
64352;BME280;50680;52.626;-8.668;2023-02-12T11:19:07;103233.38;;;10.41;100.00
64352;BME280;50680;52.626;-8.668;2023-02-12T11:21:44;103236.00;;;10.41;100.00
64352;BME280;50680;52.626;-8.668;2023-02-12T11:24:21;103233.31;;;10.44;100.00
64352;BME280;50680;52.626;-8.668;2023-02-12T11:26:48;103228.00;;;10.49;100.00
64352;BME280;50680;52.626;-8.668;2023-02-12T11:29:33;103234.16;;;10.46;100.00
64352;BME280;50680;52.626;-8.668;2023-02-12T11:32:02;103219.19;;;10.51;100.00
64352;BME280;50680;52.626;-8.668;2023-02-12T11:34:30;103227.00;;;10.54;100.00
64352;BME280;50680;52.626;-8.668;2023-02-12T11:36:57;103234.94;;;10.51;100.00
64352;BME280;50680;52.626;-8.668;2023-02-12T11:39:32;103228.00;;;10.49;100.00
64352;BME280;50680;52.626;-8.668;2023-02-12T11:42:03;103236.66;;;10.54;100.00
64352;BME280;50680;52.626;-8.668;2023-02-12T11:44:37;103225.22;;;10.57;100.00
64352;BME280;50680;52.626;-8.668;2023-02-12T11:47:08;103231.38;;;10.56;100.00
64352;BME280;50680;52.626;-8.668;2023-02-12T11:49:40;103230.47;;;10.57;100.00
64352;BME280;50680;52.626;-8.668;2023-02-12T11:52:24;103221.72;;;10.58;100.00
64352;BME280;50680;52.626;-8.668;2023-02-12T11:54:55;103226.91;;;10.61;100.00
64352;BME280;50680;52.626;-8.668;2023-02-12T11:57:50;103210.19;;;10.65;100.00
64352;BME280;50680;52.626;-8.668;2023-02-12T12:00:25;103215.50;;;10.62;100.00
64352;BME280;50680;52.626;-8.668;2023-02-12T12:03:02;103213.72;;;10.64;100.00
64352;BME280;50680;52.626;-8.668;2023-02-12T12:05:41;103209.44;;;10.60;100.00
64352;BME280;50680;52.626;-8.668;2023-02-12T12:08:17;103203.34;;;10.58;100.00
64352;BME280;50680;52.626;-8.668;2023-02-12T12:13:24;103201.63;;;10.55;100.00
64352;BME280;50680;52.626;-8.668;2023-02-12T12:16:03;103199.91;;;10.56;100.00
64352;BME280;50680;52.626;-8.668;2023-02-12T12:18:55;103208.66;;;10.54;100.00
64352;BME280;50680;52.626;-8.668;2023-02-12T12:22:03;103206.13;;;10.48;100.00
64352;BME280;50680;52.626;-8.668;2023-02-12T12:25:32;103197.56;;;10.40;100.00
64352;BME280;50680;52.626;-8.668;2023-02-12T12:34:10;103197.56;;;10.40;100.00
64352;BME280;50680;52.626;-8.668;2023-02-12T12:39:02;103195.81;;;10.39;100.00
64352;BME280;50680;52.626;-8.668;2023-02-12T12:47:39;103197.63;;;10.35;100.00
64352;BME280;50680;52.626;-8.668;2023-02-12T13:07:05;103172.00;;;10.50;100.00
64352;BME280;50680;52.626;-8.668;2023-02-12T13:20:26;103169.25;;;10.58;100.00
64352;BME280;50680;52.626;-8.668;2023-02-12T13:28:43;103158.72;;;10.59;100.00
64352;BME280;50680;52.626;-8.668;2023-02-12T13:31:21;103155.19;;;10.60;100.00
64352;BME280;50680;52.626;-8.668;2023-02-12T13:34:06;103142.94;;;10.61;100.00
64352;BME280;50680;52.626;-8.668;2023-02-12T13:36:37;103141.31;;;10.53;100.00
64352;BME280;50680;52.626;-8.668;2023-02-12T13:41:39;103156.09;;;10.59;100.00
64352;BME280;50680;52.626;-8.668;2023-02-12T13:44:22;103156.28;;;10.48;100.00
64352;BME280;50680;52.626;-8.668;2023-02-12T13:50:29;103153.59;;;10.53;100.00
64352;BME280;50680;52.626;-8.668;2023-02-12T13:53:01;103150.09;;;10.52;100.00
64352;BME280;50680;52.626;-8.668;2023-02-12T13:55:38;103157.13;;;10.52;100.00
64352;BME280;50680;52.626;-8.668;2023-02-12T14:01:12;103149.09;;;10.58;100.00
64352;BME280;50680;52.626;-8.668;2023-02-12T14:03:40;103142.94;;;10.61;100.00
64352;BME280;50680;52.626;-8.668;2023-02-12T14:08:40;103147.22;;;10.65;100.00
64352;BME280;50680;52.626;-8.668;2023-02-12T14:11:14;103141.09;;;10.66;100.00
64352;BME280;50680;52.626;-8.668;2023-02-12T14:14:00;103140.22;;;10.65;100.00
64352;BME280;50680;52.626;-8.668;2023-02-12T14:22:09;103141.03;;;10.67;100.00
64352;BME280;50680;52.626;-8.668;2023-02-12T14:43:01;103112.91;;;10.74;100.00
64352;BME280;50680;52.626;-8.668;2023-02-12T14:47:55;103112.78;;;10.80;100.00
64352;BME280;50680;52.626;-8.668;2023-02-12T14:50:29;103111.00;;;10.82;100.00
64352;BME280;50680;52.626;-8.668;2023-02-12T14:53:06;103107.47;;;10.83;100.00
64352;BME280;50680;52.626;-8.668;2023-02-12T14:55:39;103096.97;;;10.85;100.00
64352;BME280;50680;52.626;-8.668;2023-02-12T14:58:17;103097.78;;;10.87;100.00
64352;BME280;50680;52.626;-8.668;2023-02-12T15:00:47;103089.00;;;10.88;100.00
64352;BME280;50680;52.626;-8.668;2023-02-12T15:09:01;103089.09;;;10.85;100.00
64352;BME280;50680;52.626;-8.668;2023-02-12T15:11:32;103074.97;;;10.89;100.00
64352;BME280;50680;52.626;-8.668;2023-02-12T15:14:21;103079.44;;;10.85;100.00
64352;BME280;50680;52.626;-8.668;2023-02-12T15:17:11;103086.50;;;10.83;100.00
64352;BME280;50680;52.626;-8.668;2023-02-12T15:22:26;103073.88;;;10.99;100.00
64352;BME280;50680;52.626;-8.668;2023-02-12T15:27:44;103084.19;;;11.07;100.00
64352;BME280;50680;52.626;-8.668;2023-02-12T15:30:24;103076.28;;;11.08;100.00
64352;BME280;50680;52.626;-8.668;2023-02-12T15:32:54;103082.31;;;11.12;100.00
64352;BME280;50680;52.626;-8.668;2023-02-12T15:35:26;103073.44;;;11.18;100.00
64352;BME280;50680;52.626;-8.668;2023-02-12T15:37:55;103070.00;;;11.14;100.00
64352;BME280;50680;52.626;-8.668;2023-02-12T15:40:22;103079.72;;;11.10;100.00
64352;BME280;50680;52.626;-8.668;2023-02-12T15:43:00;103072.16;;;10.97;100.00
64352;BME280;50680;52.626;-8.668;2023-02-12T15:45:32;103073.19;;;10.91;100.00
64352;BME280;50680;52.626;-8.668;2023-02-12T15:53:27;103072.59;;;10.78;100.00